createdAt,value
2022-09-30T00:00:12.164Z,100.00
2022-09-30T00:05:15.666Z,100.00
2022-09-30T00:10:20.521Z,100.00
2022-09-30T00:15:24.216Z,100.00
2022-09-30T00:20:27.636Z,100.00
2022-09-30T00:25:32.566Z,100.00
2022-09-30T00:30:35.992Z,100.00
2022-09-30T00:35:39.430Z,100.00
2022-09-30T00:40:44.482Z,100.00
2022-09-30T00:45:52.605Z,100.00
2022-09-30T00:50:56.813Z,100.00
2022-09-30T00:56:04.842Z,100.00
2022-09-30T01:01:10.108Z,100.00
2022-09-30T01:06:14.070Z,100.00
2022-09-30T01:11:18.906Z,100.00
2022-09-30T01:16:42.325Z,100.00
2022-09-30T01:22:12.340Z,100.00
2022-09-30T01:27:48.512Z,100.00
2022-09-30T01:33:11.625Z,100.00
2022-09-30T01:38:28.104Z,100.00
2022-09-30T01:43:40.768Z,100.00
2022-09-30T01:48:52.423Z,100.00
2022-09-30T01:54:01.214Z,100.00
2022-09-30T01:59:09.661Z,100.00
2022-09-30T02:04:21.021Z,100.00
2022-09-30T02:09:30.324Z,100.00
2022-09-30T02:14:38.659Z,100.00
2022-09-30T02:19:47.078Z,100.00
2022-09-30T02:24:56.233Z,100.00
2022-09-30T02:30:04.139Z,100.00
2022-09-30T02:35:14.002Z,100.00
2022-09-30T02:40:23.126Z,100.00
2022-09-30T02:45:27.288Z,100.00
2022-09-30T02:50:36.259Z,100.00
2022-09-30T02:55:51.186Z,100.00
2022-09-30T03:00:55.902Z,100.00
2022-09-30T03:06:00.927Z,100.00
2022-09-30T03:11:05.850Z,100.00
2022-09-30T03:16:20.544Z,100.00
2022-09-30T03:21:38.758Z,100.00
2022-09-30T03:26:52.050Z,100.00
2022-09-30T03:32:09.232Z,100.00
2022-09-30T03:37:27.099Z,100.00
2022-09-30T03:42:38.615Z,100.00
2022-09-30T03:47:47.785Z,100.00
2022-09-30T03:52:53.150Z,100.00
2022-09-30T03:57:57.759Z,100.00
2022-09-30T04:03:01.475Z,100.00
2022-09-30T04:08:06.389Z,100.00
2022-09-30T04:13:09.896Z,100.00
2022-09-30T04:18:13.630Z,100.00
2022-09-30T04:23:18.961Z,100.00
2022-09-30T04:28:23.243Z,100.00
2022-09-30T04:33:27.585Z,100.00
2022-09-30T04:38:33.625Z,100.00
2022-09-30T04:43:37.721Z,100.00
2022-09-30T04:48:45.929Z,100.00
2022-09-30T04:53:51.819Z,100.00
2022-09-30T04:58:55.747Z,100.00
2022-09-30T05:03:59.307Z,100.00
2022-09-30T05:09:04.764Z,100.00
2022-09-30T05:14:09.905Z,100.00
2022-09-30T05:19:13.551Z,100.00
2022-09-30T05:24:18.989Z,100.00
2022-09-30T05:29:22.524Z,100.00
2022-09-30T05:34:26.564Z,100.00
2022-09-30T05:39:31.389Z,100.00
2022-09-30T05:44:34.909Z,100.00
2022-09-30T05:49:40.195Z,100.00
2022-09-30T05:54:45.348Z,100.00
2022-09-30T05:59:48.862Z,100.00
2022-09-30T06:04:52.437Z,100.00
2022-09-30T06:09:57.376Z,100.00
2022-09-30T06:15:01.125Z,100.00
2022-09-30T06:20:05.631Z,100.00
2022-09-30T06:25:11.520Z,100.00
2022-09-30T06:30:15.418Z,100.00
2022-09-30T06:35:19.566Z,100.00
2022-09-30T06:40:25.011Z,100.00
2022-09-30T06:45:32.981Z,100.00
2022-09-30T06:50:39.235Z,100.00
2022-09-30T06:55:44.380Z,100.00
2022-09-30T07:00:48.154Z,100.00
2022-09-30T07:05:58.244Z,100.00
2022-09-30T07:11:05.526Z,100.00
2022-09-30T07:16:09.162Z,100.00
2022-09-30T07:21:13.727Z,100.00
2022-09-30T07:26:20.750Z,100.00
2022-09-30T07:31:35.325Z,100.00
2022-09-30T07:36:40.434Z,100.00
2022-09-30T07:41:45.372Z,100.00
2022-09-30T07:46:48.931Z,100.00
2022-09-30T07:51:53.955Z,100.00
2022-09-30T07:57:15.956Z,100.00
2022-09-30T08:02:20.748Z,100.00
2022-09-30T08:07:24.222Z,100.00
2022-09-30T08:12:29.218Z,100.00
2022-09-30T08:17:32.733Z,100.00
2022-09-30T08:22:36.166Z,100.00
2022-09-30T08:27:41.186Z,100.00
2022-09-30T08:32:44.794Z,100.00
2022-09-30T08:37:48.364Z,100.00
2022-09-30T08:43:10.253Z,94.60
2022-09-30T08:48:29.983Z,96.81
2022-09-30T08:53:37.670Z,85.79
2022-09-30T08:58:45.396Z,90.88
2022-09-30T09:03:49.232Z,92.93
2022-09-30T09:09:19.873Z,79.25
2022-09-30T09:14:39.288Z,82.23
2022-09-30T09:19:48.612Z,77.73
2022-09-30T09:24:54.830Z,71.29
2022-09-30T09:30:07.660Z,73.80
2022-09-30T09:35:16.471Z,70.13
2022-09-30T09:40:28.510Z,73.81
2022-09-30T09:45:39.782Z,66.67
2022-09-30T09:50:51.750Z,61.27
2022-09-30T09:55:59.385Z,61.53
2022-09-30T10:01:32.106Z,62.59
2022-09-30T10:06:44.838Z,58.92
2022-09-30T10:11:48.491Z,58.68
2022-09-30T10:17:00.757Z,56.30
2022-09-30T10:22:20.492Z,56.83
2022-09-30T10:27:31.683Z,57.87
2022-09-30T10:32:37.454Z,51.85
2022-09-30T10:37:52.307Z,56.01
2022-09-30T10:42:57.109Z,54.76
2022-09-30T10:48:07.681Z,54.06
2022-09-30T10:53:18.227Z,51.19
2022-09-30T10:58:38.475Z,49.94
2022-09-30T11:03:56.095Z,49.43
2022-09-30T11:09:07.239Z,51.87
2022-09-30T11:14:28.511Z,51.69
2022-09-30T11:19:37.348Z,50.90
2022-09-30T11:24:44.812Z,52.77
2022-09-30T11:30:02.094Z,47.68
2022-09-30T11:35:22.325Z,48.44
2022-09-30T11:40:32.330Z,47.72
2022-09-30T11:45:50.596Z,46.41
2022-09-30T11:51:04.177Z,47.87
2022-09-30T11:56:21.826Z,48.54
2022-09-30T12:01:32.732Z,47.78
2022-09-30T12:06:40.988Z,50.30
2022-09-30T12:11:51.847Z,50.04
2022-09-30T12:16:58.532Z,52.53
2022-09-30T12:22:11.903Z,50.70
2022-09-30T12:27:20.147Z,48.62
2022-09-30T12:33:13.123Z,48.03
2022-09-30T12:38:39.220Z,47.09
2022-09-30T12:44:16.923Z,47.41
2022-09-30T12:49:24.616Z,46.51
2022-09-30T12:54:35.020Z,46.46
2022-09-30T12:59:45.632Z,46.98
2022-09-30T13:04:52.078Z,46.53
2022-09-30T13:10:26.999Z,47.85
2022-09-30T13:15:44.305Z,48.60
2022-09-30T13:20:55.357Z,47.26
2022-09-30T13:26:02.075Z,48.08
2022-09-30T13:31:19.071Z,47.77
2022-09-30T13:36:30.137Z,46.79
2022-09-30T13:41:38.739Z,48.34
2022-09-30T13:46:49.945Z,47.39
2022-09-30T13:51:56.638Z,47.76
2022-09-30T13:57:03.633Z,49.00
2022-09-30T14:02:39.748Z,47.45
2022-09-30T14:07:58.054Z,48.51
2022-09-30T14:13:19.688Z,49.16
2022-09-30T14:18:44.313Z,48.29
2022-09-30T14:23:57.366Z,48.41
2022-09-30T14:29:09.356Z,49.62
2022-09-30T14:34:15.164Z,50.36
2022-09-30T14:39:22.218Z,51.21
2022-09-30T14:44:29.810Z,51.31
2022-09-30T14:49:37.592Z,51.51
2022-09-30T14:54:48.632Z,52.30
2022-09-30T14:59:53.615Z,53.15
2022-09-30T15:05:01.799Z,54.89
2022-09-30T15:10:07.582Z,58.92
2022-09-30T15:15:36.876Z,67.08
2022-09-30T15:20:42.452Z,68.28
2022-09-30T15:25:45.984Z,68.78
2022-09-30T15:30:54.259Z,74.01
2022-09-30T15:36:06.976Z,72.15
2022-09-30T15:41:12.955Z,77.75
2022-09-30T15:46:38.623Z,83.35
2022-09-30T15:51:44.372Z,80.19
2022-09-30T15:56:48.072Z,85.43
2022-09-30T16:01:58.114Z,84.47
2022-09-30T16:07:09.787Z,89.27
2022-09-30T16:12:21.275Z,91.96
2022-09-30T16:17:28.978Z,91.13
2022-09-30T16:22:49.218Z,96.78
2022-09-30T16:27:57.823Z,100.00
2022-09-30T16:33:06.058Z,100.00
2022-09-30T16:38:14.140Z,100.00
2022-09-30T16:43:17.791Z,100.00
2022-09-30T16:48:22.664Z,100.00
2022-09-30T16:53:26.173Z,100.00
2022-09-30T16:58:31.261Z,100.00
2022-09-30T17:03:35.986Z,100.00
2022-09-30T17:08:39.333Z,100.00
2022-09-30T17:13:43.225Z,100.00
2022-09-30T17:18:48.267Z,100.00
2022-09-30T17:23:52.384Z,100.00
2022-09-30T17:29:08.789Z,100.00
2022-09-30T17:34:19.780Z,100.00
2022-09-30T17:39:33.210Z,100.00
2022-09-30T17:44:39.147Z,100.00
2022-09-30T17:49:45.360Z,100.00
2022-09-30T17:54:58.256Z,100.00
2022-09-30T18:00:05.198Z,100.00
2022-09-30T18:05:14.540Z,100.00
2022-09-30T18:10:18.343Z,100.00
2022-09-30T18:15:27.119Z,100.00
2022-09-30T18:20:44.890Z,100.00
2022-09-30T18:25:52.229Z,100.00
2022-09-30T18:30:55.755Z,100.00
2022-09-30T18:36:03.232Z,100.00
2022-09-30T18:41:07.467Z,100.00
2022-09-30T18:46:10.887Z,100.00
2022-09-30T18:51:18.893Z,100.00
2022-09-30T18:56:24.151Z,100.00
2022-09-30T19:01:27.946Z,100.00
2022-09-30T19:06:33.158Z,100.00
2022-09-30T19:11:37.444Z,100.00
2022-09-30T19:16:44.037Z,100.00
2022-09-30T19:21:49.795Z,100.00
2022-09-30T19:26:53.223Z,100.00
2022-09-30T19:31:58.518Z,100.00
2022-09-30T19:37:03.694Z,100.00
2022-09-30T19:42:09.357Z,100.00
2022-09-30T19:47:12.948Z,100.00
2022-09-30T19:52:22.122Z,100.00
2022-09-30T19:57:27.976Z,100.00
2022-09-30T20:02:31.675Z,100.00
2022-09-30T20:07:39.411Z,100.00
2022-09-30T20:12:44.665Z,100.00
2022-09-30T20:17:50.364Z,100.00
2022-09-30T20:22:55.645Z,100.00
2022-09-30T20:27:59.537Z,100.00
2022-09-30T20:33:04.490Z,100.00
2022-09-30T20:38:13.763Z,100.00
2022-09-30T20:43:17.681Z,100.00
2022-09-30T20:48:21.391Z,100.00
2022-09-30T20:53:26.690Z,100.00
2022-09-30T20:58:30.133Z,100.00
2022-09-30T21:03:36.122Z,100.00
2022-09-30T21:08:43.087Z,100.00
2022-09-30T21:13:50.535Z,100.00
2022-09-30T21:18:55.716Z,100.00
2022-09-30T21:24:02.328Z,100.00
2022-09-30T21:29:06.224Z,100.00
2022-09-30T21:34:13.813Z,100.00
2022-09-30T21:39:18.599Z,100.00
2022-09-30T21:44:23.360Z,100.00
2022-09-30T21:49:26.680Z,100.00
2022-09-30T21:54:31.390Z,100.00
2022-09-30T21:59:46.318Z,100.00
2022-09-30T22:04:52.046Z,100.00
2022-09-30T22:09:56.968Z,100.00
2022-09-30T22:15:00.333Z,100.00
2022-09-30T22:20:03.863Z,100.00
2022-09-30T22:25:10.338Z,100.00
2022-09-30T22:30:14.027Z,100.00
2022-09-30T22:35:35.044Z,100.00
2022-09-30T22:40:39.957Z,100.00
2022-09-30T22:45:43.988Z,100.00
2022-09-30T22:50:48.092Z,100.00
2022-09-30T22:55:53.146Z,100.00
2022-09-30T23:00:58.736Z,100.00
2022-09-30T23:06:03.299Z,100.00
2022-09-30T23:11:09.754Z,100.00
2022-09-30T23:16:16.664Z,100.00
2022-09-30T23:21:21.657Z,100.00
2022-09-30T23:26:28.439Z,100.00
2022-09-30T23:31:32.506Z,100.00
2022-09-30T23:36:38.060Z,100.00
2022-09-30T23:41:46.338Z,100.00
2022-09-30T23:47:09.814Z,100.00
2022-09-30T23:52:14.131Z,100.00
2022-09-30T23:57:18.823Z,100.00
